sensor_id;sensor_type;location;lat;lon;timestamp;temperature;humidity
8798;DHT22;4435;50.898;4.734;2022-07-23T00:00:12;17.00;99.90
8798;DHT22;4435;50.898;4.734;2022-07-23T00:02:38;17.00;99.90
8798;DHT22;4435;50.898;4.734;2022-07-23T00:05:04;17.00;99.90
8798;DHT22;4435;50.898;4.734;2022-07-23T00:07:30;16.90;99.90
8798;DHT22;4435;50.898;4.734;2022-07-23T00:09:56;16.90;99.90
8798;DHT22;4435;50.898;4.734;2022-07-23T00:12:21;16.90;99.90
8798;DHT22;4435;50.898;4.734;2022-07-23T00:14:47;16.90;99.90
8798;DHT22;4435;50.898;4.734;2022-07-23T00:17:13;16.90;99.90
8798;DHT22;4435;50.898;4.734;2022-07-23T00:19:38;16.90;99.90
8798;DHT22;4435;50.898;4.734;2022-07-23T00:22:04;16.90;99.90
8798;DHT22;4435;50.898;4.734;2022-07-23T00:24:30;16.80;99.90
8798;DHT22;4435;50.898;4.734;2022-07-23T00:26:56;16.80;99.90
8798;DHT22;4435;50.898;4.734;2022-07-23T00:29:21;16.70;99.90
8798;DHT22;4435;50.898;4.734;2022-07-23T00:31:47;16.70;99.90
8798;DHT22;4435;50.898;4.734;2022-07-23T00:34:13;16.70;99.90
8798;DHT22;4435;50.898;4.734;2022-07-23T00:36:39;16.60;99.90
8798;DHT22;4435;50.898;4.734;2022-07-23T00:39:05;16.60;99.90
8798;DHT22;4435;50.898;4.734;2022-07-23T00:41:30;16.50;99.90
8798;DHT22;4435;50.898;4.734;2022-07-23T00:44:18;16.50;99.90
8798;DHT22;4435;50.898;4.734;2022-07-23T00:46:49;16.50;99.90
8798;DHT22;4435;50.898;4.734;2022-07-23T00:49:22;16.60;99.90
8798;DHT22;4435;50.898;4.734;2022-07-23T00:51:49;16.60;99.90
8798;DHT22;4435;50.898;4.734;2022-07-23T00:54:16;16.60;99.90
8798;DHT22;4435;50.898;4.734;2022-07-23T00:56:44;16.60;99.90
8798;DHT22;4435;50.898;4.734;2022-07-23T00:59:10;16.60;99.90
8798;DHT22;4435;50.898;4.734;2022-07-23T01:01:36;16.60;99.90
8798;DHT22;4435;50.898;4.734;2022-07-23T01:04:02;16.60;99.90
8798;DHT22;4435;50.898;4.734;2022-07-23T01:06:28;16.60;99.90
8798;DHT22;4435;50.898;4.734;2022-07-23T01:08:55;16.40;99.90
8798;DHT22;4435;50.898;4.734;2022-07-23T01:11:23;16.40;99.90
8798;DHT22;4435;50.898;4.734;2022-07-23T01:13:49;16.40;99.90
8798;DHT22;4435;50.898;4.734;2022-07-23T01:16:14;16.40;99.90
8798;DHT22;4435;50.898;4.734;2022-07-23T01:18:40;16.30;99.90
8798;DHT22;4435;50.898;4.734;2022-07-23T01:21:06;16.40;99.90
8798;DHT22;4435;50.898;4.734;2022-07-23T01:23:32;16.40;99.90
8798;DHT22;4435;50.898;4.734;2022-07-23T01:25:57;16.40;99.90
8798;DHT22;4435;50.898;4.734;2022-07-23T01:28:23;16.40;99.90
8798;DHT22;4435;50.898;4.734;2022-07-23T01:30:49;16.40;99.90
8798;DHT22;4435;50.898;4.734;2022-07-23T01:33:15;16.40;99.90
8798;DHT22;4435;50.898;4.734;2022-07-23T01:35:41;16.40;99.90
8798;DHT22;4435;50.898;4.734;2022-07-23T01:38:06;16.30;99.90
8798;DHT22;4435;50.898;4.734;2022-07-23T01:40:32;16.20;99.90
8798;DHT22;4435;50.898;4.734;2022-07-23T01:42:59;16.20;99.90
8798;DHT22;4435;50.898;4.734;2022-07-23T01:45:24;16.00;99.90
8798;DHT22;4435;50.898;4.734;2022-07-23T01:47:50;15.90;99.90
8798;DHT22;4435;50.898;4.734;2022-07-23T01:50:16;15.90;99.90
8798;DHT22;4435;50.898;4.734;2022-07-23T01:52:42;15.90;99.90
8798;DHT22;4435;50.898;4.734;2022-07-23T01:55:08;15.90;99.90
8798;DHT22;4435;50.898;4.734;2022-07-23T01:57:34;15.90;99.90
8798;DHT22;4435;50.898;4.734;2022-07-23T02:00:00;15.90;99.90
8798;DHT22;4435;50.898;4.734;2022-07-23T02:02:25;15.80;99.90
8798;DHT22;4435;50.898;4.734;2022-07-23T02:04:51;15.80;99.90
8798;DHT22;4435;50.898;4.734;2022-07-23T02:07:17;15.90;99.90
8798;DHT22;4435;50.898;4.734;2022-07-23T02:09:42;15.80;99.90
8798;DHT22;4435;50.898;4.734;2022-07-23T02:12:08;15.90;99.90
8798;DHT22;4435;50.898;4.734;2022-07-23T02:14:36;15.90;99.90
8798;DHT22;4435;50.898;4.734;2022-07-23T02:17:02;15.90;99.90
8798;DHT22;4435;50.898;4.734;2022-07-23T02:19:28;16.00;99.90
8798;DHT22;4435;50.898;4.734;2022-07-23T02:21:54;16.00;99.90
8798;DHT22;4435;50.898;4.734;2022-07-23T02:24:20;15.90;99.90
8798;DHT22;4435;50.898;4.734;2022-07-23T02:26:46;15.90;99.90
8798;DHT22;4435;50.898;4.734;2022-07-23T02:29:12;15.90;99.90
8798;DHT22;4435;50.898;4.734;2022-07-23T02:31:38;15.90;99.90
8798;DHT22;4435;50.898;4.734;2022-07-23T02:34:04;15.90;99.90
8798;DHT22;4435;50.898;4.734;2022-07-23T02:36:30;15.90;99.90
8798;DHT22;4435;50.898;4.734;2022-07-23T02:38:56;15.90;99.90
8798;DHT22;4435;50.898;4.734;2022-07-23T02:41:22;15.90;99.90
8798;DHT22;4435;50.898;4.734;2022-07-23T02:43:48;15.90;99.90
8798;DHT22;4435;50.898;4.734;2022-07-23T02:46:14;15.90;99.90
8798;DHT22;4435;50.898;4.734;2022-07-23T02:48:39;16.00;99.90
8798;DHT22;4435;50.898;4.734;2022-07-23T02:51:05;16.00;99.90
8798;DHT22;4435;50.898;4.734;2022-07-23T02:53:31;16.00;99.90
8798;DHT22;4435;50.898;4.734;2022-07-23T02:55:57;16.00;99.90
8798;DHT22;4435;50.898;4.734;2022-07-23T02:58:23;15.90;99.90
8798;DHT22;4435;50.898;4.734;2022-07-23T03:00:48;15.90;99.90
8798;DHT22;4435;50.898;4.734;2022-07-23T03:03:15;15.90;99.90
8798;DHT22;4435;50.898;4.734;2022-07-23T03:05:40;15.90;99.90
8798;DHT22;4435;50.898;4.734;2022-07-23T03:08:06;15.90;99.90
8798;DHT22;4435;50.898;4.734;2022-07-23T03:10:32;15.80;99.90
8798;DHT22;4435;50.898;4.734;2022-07-23T03:12:57;15.70;99.90
8798;DHT22;4435;50.898;4.734;2022-07-23T03:15:23;15.70;99.90
8798;DHT22;4435;50.898;4.734;2022-07-23T03:17:49;15.60;99.90
8798;DHT22;4435;50.898;4.734;2022-07-23T03:20:14;15.70;99.90
8798;DHT22;4435;50.898;4.734;2022-07-23T03:22:40;15.70;99.90
8798;DHT22;4435;50.898;4.734;2022-07-23T03:25:06;15.80;99.90
8798;DHT22;4435;50.898;4.734;2022-07-23T03:27:32;15.80;99.90
8798;DHT22;4435;50.898;4.734;2022-07-23T03:29:59;15.80;99.90
8798;DHT22;4435;50.898;4.734;2022-07-23T03:32:25;15.70;99.90
8798;DHT22;4435;50.898;4.734;2022-07-23T03:34:52;15.60;99.90
8798;DHT22;4435;50.898;4.734;2022-07-23T03:37:18;15.60;99.90
8798;DHT22;4435;50.898;4.734;2022-07-23T03:39:44;15.50;99.90
8798;DHT22;4435;50.898;4.734;2022-07-23T03:42:10;15.50;99.90
8798;DHT22;4435;50.898;4.734;2022-07-23T03:44:36;15.60;99.90
8798;DHT22;4435;50.898;4.734;2022-07-23T03:47:03;15.60;99.90
8798;DHT22;4435;50.898;4.734;2022-07-23T03:49:29;15.60;99.90
8798;DHT22;4435;50.898;4.734;2022-07-23T03:51:55;15.50;99.90
8798;DHT22;4435;50.898;4.734;2022-07-23T03:54:20;15.50;99.90
8798;DHT22;4435;50.898;4.734;2022-07-23T03:56:46;15.50;99.90
8798;DHT22;4435;50.898;4.734;2022-07-23T03:59:12;15.50;99.90
8798;DHT22;4435;50.898;4.734;2022-07-23T04:01:37;15.60;99.90
8798;DHT22;4435;50.898;4.734;2022-07-23T04:04:03;15.60;99.90
8798;DHT22;4435;50.898;4.734;2022-07-23T04:06:29;15.60;99.90
8798;DHT22;4435;50.898;4.734;2022-07-23T04:08:55;15.50;99.90
8798;DHT22;4435;50.898;4.734;2022-07-23T04:11:20;15.50;99.90
8798;DHT22;4435;50.898;4.734;2022-07-23T04:13:47;15.50;99.90
8798;DHT22;4435;50.898;4.734;2022-07-23T04:16:12;15.40;99.90
8798;DHT22;4435;50.898;4.734;2022-07-23T04:18:38;15.40;99.90
8798;DHT22;4435;50.898;4.734;2022-07-23T04:21:04;15.40;99.90
8798;DHT22;4435;50.898;4.734;2022-07-23T04:23:30;15.40;99.90
8798;DHT22;4435;50.898;4.734;2022-07-23T04:25:55;15.50;99.90
8798;DHT22;4435;50.898;4.734;2022-07-23T04:28:21;15.50;99.90
8798;DHT22;4435;50.898;4.734;2022-07-23T04:30:47;15.60;99.90
8798;DHT22;4435;50.898;4.734;2022-07-23T04:33:12;15.60;99.90
8798;DHT22;4435;50.898;4.734;2022-07-23T04:35:38;15.60;99.90
8798;DHT22;4435;50.898;4.734;2022-07-23T04:38:04;15.60;99.90
8798;DHT22;4435;50.898;4.734;2022-07-23T04:40:30;15.60;99.90
8798;DHT22;4435;50.898;4.734;2022-07-23T04:42:56;15.60;99.90
8798;DHT22;4435;50.898;4.734;2022-07-23T04:45:22;15.60;99.90
8798;DHT22;4435;50.898;4.734;2022-07-23T04:47:49;15.60;99.90
8798;DHT22;4435;50.898;4.734;2022-07-23T04:50:15;15.60;99.90
8798;DHT22;4435;50.898;4.734;2022-07-23T04:52:44;15.60;99.90
8798;DHT22;4435;50.898;4.734;2022-07-23T04:55:11;15.60;99.90
8798;DHT22;4435;50.898;4.734;2022-07-23T04:57:36;15.60;99.90
8798;DHT22;4435;50.898;4.734;2022-07-23T05:00:03;15.50;99.90
8798;DHT22;4435;50.898;4.734;2022-07-23T05:02:29;15.40;99.90
8798;DHT22;4435;50.898;4.734;2022-07-23T05:04:55;15.30;99.90
8798;DHT22;4435;50.898;4.734;2022-07-23T05:07:20;15.30;99.90
8798;DHT22;4435;50.898;4.734;2022-07-23T05:09:46;15.30;99.90
8798;DHT22;4435;50.898;4.734;2022-07-23T05:12:12;15.30;99.90
8798;DHT22;4435;50.898;4.734;2022-07-23T05:14:38;15.30;99.90
8798;DHT22;4435;50.898;4.734;2022-07-23T05:17:03;15.40;99.90
8798;DHT22;4435;50.898;4.734;2022-07-23T05:19:30;15.50;99.90
8798;DHT22;4435;50.898;4.734;2022-07-23T05:21:56;15.50;99.90
8798;DHT22;4435;50.898;4.734;2022-07-23T05:24:21;15.60;99.90
8798;DHT22;4435;50.898;4.734;2022-07-23T05:26:47;15.70;99.90
8798;DHT22;4435;50.898;4.734;2022-07-23T05:29:13;15.70;99.90
8798;DHT22;4435;50.898;4.734;2022-07-23T05:31:38;15.80;99.90
8798;DHT22;4435;50.898;4.734;2022-07-23T05:34:04;15.80;99.90
8798;DHT22;4435;50.898;4.734;2022-07-23T05:36:31;15.80;99.90
8798;DHT22;4435;50.898;4.734;2022-07-23T05:38:57;15.80;99.90
8798;DHT22;4435;50.898;4.734;2022-07-23T05:41:23;15.90;99.90
8798;DHT22;4435;50.898;4.734;2022-07-23T05:43:49;15.80;99.90
8798;DHT22;4435;50.898;4.734;2022-07-23T05:46:15;15.90;99.90
8798;DHT22;4435;50.898;4.734;2022-07-23T05:48:41;15.90;99.90
8798;DHT22;4435;50.898;4.734;2022-07-23T05:51:08;15.90;99.90
8798;DHT22;4435;50.898;4.734;2022-07-23T05:53:35;15.90;99.90
8798;DHT22;4435;50.898;4.734;2022-07-23T05:56:01;15.90;99.90
8798;DHT22;4435;50.898;4.734;2022-07-23T05:58:27;16.00;99.90
8798;DHT22;4435;50.898;4.734;2022-07-23T06:00:52;16.00;99.90
8798;DHT22;4435;50.898;4.734;2022-07-23T06:03:18;16.00;99.90
8798;DHT22;4435;50.898;4.734;2022-07-23T06:05:45;16.10;99.90
8798;DHT22;4435;50.898;4.734;2022-07-23T06:08:11;16.20;99.90
8798;DHT22;4435;50.898;4.734;2022-07-23T06:10:36;16.30;99.90
8798;DHT22;4435;50.898;4.734;2022-07-23T06:13:02;16.30;99.90
8798;DHT22;4435;50.898;4.734;2022-07-23T06:15:28;16.30;99.90
8798;DHT22;4435;50.898;4.734;2022-07-23T06:17:54;16.30;99.90
8798;DHT22;4435;50.898;4.734;2022-07-23T06:20:20;16.30;99.90
8798;DHT22;4435;50.898;4.734;2022-07-23T06:22:45;16.30;99.90
8798;DHT22;4435;50.898;4.734;2022-07-23T06:25:11;16.30;99.90
8798;DHT22;4435;50.898;4.734;2022-07-23T06:27:37;16.30;99.90
8798;DHT22;4435;50.898;4.734;2022-07-23T06:30:03;16.30;99.90
8798;DHT22;4435;50.898;4.734;2022-07-23T06:32:29;16.30;99.90
8798;DHT22;4435;50.898;4.734;2022-07-23T06:34:55;16.40;99.90
8798;DHT22;4435;50.898;4.734;2022-07-23T06:37:20;16.40;99.90
8798;DHT22;4435;50.898;4.734;2022-07-23T06:39:46;16.40;99.90
8798;DHT22;4435;50.898;4.734;2022-07-23T06:42:12;16.40;99.90
8798;DHT22;4435;50.898;4.734;2022-07-23T06:44:39;16.50;99.90
8798;DHT22;4435;50.898;4.734;2022-07-23T06:47:04;16.50;99.90
8798;DHT22;4435;50.898;4.734;2022-07-23T06:49:30;16.50;99.90
8798;DHT22;4435;50.898;4.734;2022-07-23T06:51:56;16.60;99.90
8798;DHT22;4435;50.898;4.734;2022-07-23T06:54:21;16.60;99.90
8798;DHT22;4435;50.898;4.734;2022-07-23T06:56:47;16.60;99.90
8798;DHT22;4435;50.898;4.734;2022-07-23T06:59:13;16.70;99.90
8798;DHT22;4435;50.898;4.734;2022-07-23T07:01:38;16.70;99.90
8798;DHT22;4435;50.898;4.734;2022-07-23T07:04:04;16.70;99.90
8798;DHT22;4435;50.898;4.734;2022-07-23T07:06:30;16.70;99.90
8798;DHT22;4435;50.898;4.734;2022-07-23T07:08:55;16.80;99.90
8798;DHT22;4435;50.898;4.734;2022-07-23T07:11:22;16.80;99.90
8798;DHT22;4435;50.898;4.734;2022-07-23T07:13:49;16.90;99.90
8798;DHT22;4435;50.898;4.734;2022-07-23T07:16:15;16.90;99.90
8798;DHT22;4435;50.898;4.734;2022-07-23T07:18:40;16.90;99.90
8798;DHT22;4435;50.898;4.734;2022-07-23T07:21:06;17.00;99.90
8798;DHT22;4435;50.898;4.734;2022-07-23T07:23:32;17.00;99.90
8798;DHT22;4435;50.898;4.734;2022-07-23T07:25:58;17.00;99.90
8798;DHT22;4435;50.898;4.734;2022-07-23T07:28:23;17.10;99.90
8798;DHT22;4435;50.898;4.734;2022-07-23T07:30:49;17.10;99.90
8798;DHT22;4435;50.898;4.734;2022-07-23T07:33:15;17.10;99.90
8798;DHT22;4435;50.898;4.734;2022-07-23T07:35:40;17.20;99.90
8798;DHT22;4435;50.898;4.734;2022-07-23T07:38:06;17.20;99.90
8798;DHT22;4435;50.898;4.734;2022-07-23T07:40:32;17.30;99.90
8798;DHT22;4435;50.898;4.734;2022-07-23T07:42:59;17.30;99.90
8798;DHT22;4435;50.898;4.734;2022-07-23T07:45:25;17.40;99.90
8798;DHT22;4435;50.898;4.734;2022-07-23T07:47:51;17.40;99.90
8798;DHT22;4435;50.898;4.734;2022-07-23T07:50:19;17.40;99.90
8798;DHT22;4435;50.898;4.734;2022-07-23T07:52:45;17.50;99.90
8798;DHT22;4435;50.898;4.734;2022-07-23T07:55:11;17.60;99.90
8798;DHT22;4435;50.898;4.734;2022-07-23T07:57:37;17.60;99.90
8798;DHT22;4435;50.898;4.734;2022-07-23T08:00:04;17.60;99.90
8798;DHT22;4435;50.898;4.734;2022-07-23T08:02:49;17.60;99.90
8798;DHT22;4435;50.898;4.734;2022-07-23T08:05:18;17.70;99.90
8798;DHT22;4435;50.898;4.734;2022-07-23T08:07:44;17.70;99.90
8798;DHT22;4435;50.898;4.734;2022-07-23T08:10:10;17.70;99.90
8798;DHT22;4435;50.898;4.734;2022-07-23T08:15:10;17.80;99.90
8798;DHT22;4435;50.898;4.734;2022-07-23T08:17:36;17.80;99.90
8798;DHT22;4435;50.898;4.734;2022-07-23T08:20:03;17.90;99.90
8798;DHT22;4435;50.898;4.734;2022-07-23T08:22:51;17.90;99.90
8798;DHT22;4435;50.898;4.734;2022-07-23T08:25:26;17.90;99.90
8798;DHT22;4435;50.898;4.734;2022-07-23T08:27:52;18.00;99.90
8798;DHT22;4435;50.898;4.734;2022-07-23T08:30:19;18.10;99.90
8798;DHT22;4435;50.898;4.734;2022-07-23T08:35:17;18.30;99.90
8798;DHT22;4435;50.898;4.734;2022-07-23T08:37:43;18.30;99.90
8798;DHT22;4435;50.898;4.734;2022-07-23T08:40:10;18.30;99.90
8798;DHT22;4435;50.898;4.734;2022-07-23T08:42:35;18.40;99.90
8798;DHT22;4435;50.898;4.734;2022-07-23T08:45:03;18.40;99.90
8798;DHT22;4435;50.898;4.734;2022-07-23T08:47:29;18.40;99.90
8798;DHT22;4435;50.898;4.734;2022-07-23T08:49:57;18.40;99.90
8798;DHT22;4435;50.898;4.734;2022-07-23T08:52:24;18.50;99.90
8798;DHT22;4435;50.898;4.734;2022-07-23T08:54:50;18.50;99.90
8798;DHT22;4435;50.898;4.734;2022-07-23T08:57:17;18.50;99.90
8798;DHT22;4435;50.898;4.734;2022-07-23T08:59:42;18.50;99.90
8798;DHT22;4435;50.898;4.734;2022-07-23T09:02:08;18.60;99.90
8798;DHT22;4435;50.898;4.734;2022-07-23T09:04:34;18.60;99.90
8798;DHT22;4435;50.898;4.734;2022-07-23T09:07:01;18.60;99.90
8798;DHT22;4435;50.898;4.734;2022-07-23T09:09:27;18.70;99.90
8798;DHT22;4435;50.898;4.734;2022-07-23T09:12:10;18.70;99.90
8798;DHT22;4435;50.898;4.734;2022-07-23T09:14:45;18.80;99.90
8798;DHT22;4435;50.898;4.734;2022-07-23T09:17:17;18.80;99.90
8798;DHT22;4435;50.898;4.734;2022-07-23T09:19:44;18.90;99.90
8798;DHT22;4435;50.898;4.734;2022-07-23T09:22:25;18.90;99.90
8798;DHT22;4435;50.898;4.734;2022-07-23T09:30:13;19.10;99.90
8798;DHT22;4435;50.898;4.734;2022-07-23T09:32:39;19.20;99.90
8798;DHT22;4435;50.898;4.734;2022-07-23T09:35:06;19.20;99.90
8798;DHT22;4435;50.898;4.734;2022-07-23T09:37:32;19.20;99.90
8798;DHT22;4435;50.898;4.734;2022-07-23T09:40:06;19.30;99.90
8798;DHT22;4435;50.898;4.734;2022-07-23T09:42:33;19.40;99.90
8798;DHT22;4435;50.898;4.734;2022-07-23T09:44:59;19.40;99.90
8798;DHT22;4435;50.898;4.734;2022-07-23T09:47:30;19.50;99.90
8798;DHT22;4435;50.898;4.734;2022-07-23T09:50:09;19.50;99.90
8798;DHT22;4435;50.898;4.734;2022-07-23T09:55:08;19.50;99.90
8798;DHT22;4435;50.898;4.734;2022-07-23T09:57:34;19.50;99.90
8798;DHT22;4435;50.898;4.734;2022-07-23T10:00:08;19.60;99.90
8798;DHT22;4435;50.898;4.734;2022-07-23T10:02:37;19.60;99.90
8798;DHT22;4435;50.898;4.734;2022-07-23T10:05:03;19.70;99.90
8798;DHT22;4435;50.898;4.734;2022-07-23T10:07:32;19.80;99.90
8798;DHT22;4435;50.898;4.734;2022-07-23T10:10:00;19.90;99.90
8798;DHT22;4435;50.898;4.734;2022-07-23T10:12:26;20.00;99.90
8798;DHT22;4435;50.898;4.734;2022-07-23T10:15:10;20.00;99.90
8798;DHT22;4435;50.898;4.734;2022-07-23T10:17:36;20.00;99.90
8798;DHT22;4435;50.898;4.734;2022-07-23T10:20:03;20.10;99.90
8798;DHT22;4435;50.898;4.734;2022-07-23T10:22:42;20.20;99.90
8798;DHT22;4435;50.898;4.734;2022-07-23T10:25:37;20.20;99.90
8798;DHT22;4435;50.898;4.734;2022-07-23T10:31:06;20.40;99.90
8798;DHT22;4435;50.898;4.734;2022-07-23T10:38:51;20.50;99.90
8798;DHT22;4435;50.898;4.734;2022-07-23T10:41:35;20.50;99.90
8798;DHT22;4435;50.898;4.734;2022-07-23T10:44:08;20.60;99.90
8798;DHT22;4435;50.898;4.734;2022-07-23T10:46:35;20.60;99.90
8798;DHT22;4435;50.898;4.734;2022-07-23T10:49:28;20.60;99.90
8798;DHT22;4435;50.898;4.734;2022-07-23T10:54:39;20.80;99.90
8798;DHT22;4435;50.898;4.734;2022-07-23T10:57:06;20.80;99.90
8798;DHT22;4435;50.898;4.734;2022-07-23T11:02:42;21.00;99.90
8798;DHT22;4435;50.898;4.734;2022-07-23T11:05:10;21.10;99.90
8798;DHT22;4435;50.898;4.734;2022-07-23T11:10:37;21.10;99.90
8798;DHT22;4435;50.898;4.734;2022-07-23T11:23:57;21.40;99.90
8798;DHT22;4435;50.898;4.734;2022-07-23T11:26:53;21.60;99.90
8798;DHT22;4435;50.898;4.734;2022-07-23T11:32:17;21.70;99.90
8798;DHT22;4435;50.898;4.734;2022-07-23T11:34:48;21.70;99.90
8798;DHT22;4435;50.898;4.734;2022-07-23T11:37:36;21.70;99.90
8798;DHT22;4435;50.898;4.734;2022-07-23T11:40:09;21.70;99.90
8798;DHT22;4435;50.898;4.734;2022-07-23T11:42:39;21.80;99.90
8798;DHT22;4435;50.898;4.734;2022-07-23T11:45:16;21.80;99.90
8798;DHT22;4435;50.898;4.734;2022-07-23T11:47:41;21.80;99.90
8798;DHT22;4435;50.898;4.734;2022-07-23T11:50:08;21.80;99.90
8798;DHT22;4435;50.898;4.734;2022-07-23T11:52:34;21.80;99.90
8798;DHT22;4435;50.898;4.734;2022-07-23T11:55:05;21.90;99.90
8798;DHT22;4435;50.898;4.734;2022-07-23T11:57:34;22.00;99.90
8798;DHT22;4435;50.898;4.734;2022-07-23T12:02:44;22.00;99.90
8798;DHT22;4435;50.898;4.734;2022-07-23T12:05:15;22.00;99.90
8798;DHT22;4435;50.898;4.734;2022-07-23T12:07:43;22.00;99.90
8798;DHT22;4435;50.898;4.734;2022-07-23T12:12:57;22.10;99.90
8798;DHT22;4435;50.898;4.734;2022-07-23T12:17:54;22.30;99.90
8798;DHT22;4435;50.898;4.734;2022-07-23T12:20:25;22.40;99.90
8798;DHT22;4435;50.898;4.734;2022-07-23T12:23:03;22.40;99.90
8798;DHT22;4435;50.898;4.734;2022-07-23T12:25:32;22.50;99.90
8798;DHT22;4435;50.898;4.734;2022-07-23T12:28:02;22.60;99.90
8798;DHT22;4435;50.898;4.734;2022-07-23T12:30:31;22.70;99.90
8798;DHT22;4435;50.898;4.734;2022-07-23T12:32:58;22.70;99.90
8798;DHT22;4435;50.898;4.734;2022-07-23T12:35:40;22.80;99.90
8798;DHT22;4435;50.898;4.734;2022-07-23T12:38:09;22.80;99.90
8798;DHT22;4435;50.898;4.734;2022-07-23T12:40:44;22.80;99.90
8798;DHT22;4435;50.898;4.734;2022-07-23T12:43:19;22.80;99.90
8798;DHT22;4435;50.898;4.734;2022-07-23T12:46:05;22.90;99.90
8798;DHT22;4435;50.898;4.734;2022-07-23T12:48:54;22.90;99.90
8798;DHT22;4435;50.898;4.734;2022-07-23T12:51:30;23.00;99.90
8798;DHT22;4435;50.898;4.734;2022-07-23T12:54:06;23.00;99.90
8798;DHT22;4435;50.898;4.734;2022-07-23T12:56:35;23.00;99.90
8798;DHT22;4435;50.898;4.734;2022-07-23T12:59:05;23.00;99.90
8798;DHT22;4435;50.898;4.734;2022-07-23T13:01:34;23.10;99.90
8798;DHT22;4435;50.898;4.734;2022-07-23T13:06:35;23.20;99.90
8798;DHT22;4435;50.898;4.734;2022-07-23T13:09:02;23.20;99.90
8798;DHT22;4435;50.898;4.734;2022-07-23T13:11:29;23.20;99.90
8798;DHT22;4435;50.898;4.734;2022-07-23T13:13:55;23.20;99.90
8798;DHT22;4435;50.898;4.734;2022-07-23T13:16:20;23.20;99.90
8798;DHT22;4435;50.898;4.734;2022-07-23T13:18:46;23.20;99.90
8798;DHT22;4435;50.898;4.734;2022-07-23T13:21:12;23.20;99.90
8798;DHT22;4435;50.898;4.734;2022-07-23T13:23:38;23.30;99.90
8798;DHT22;4435;50.898;4.734;2022-07-23T13:26:04;23.30;99.90
8798;DHT22;4435;50.898;4.734;2022-07-23T13:28:30;23.30;99.90
8798;DHT22;4435;50.898;4.734;2022-07-23T13:30:56;23.40;99.90
8798;DHT22;4435;50.898;4.734;2022-07-23T13:33:23;23.40;99.90
8798;DHT22;4435;50.898;4.734;2022-07-23T13:35:50;23.50;99.90
8798;DHT22;4435;50.898;4.734;2022-07-23T13:38:17;23.50;99.90
8798;DHT22;4435;50.898;4.734;2022-07-23T13:40:45;23.60;99.90
8798;DHT22;4435;50.898;4.734;2022-07-23T13:43:14;23.50;99.90
8798;DHT22;4435;50.898;4.734;2022-07-23T13:45:41;23.50;99.90
8798;DHT22;4435;50.898;4.734;2022-07-23T13:48:08;23.50;99.90
8798;DHT22;4435;50.898;4.734;2022-07-23T13:50:35;23.40;99.90
8798;DHT22;4435;50.898;4.734;2022-07-23T13:53:06;23.40;99.90
8798;DHT22;4435;50.898;4.734;2022-07-23T13:55:33;23.40;99.90
8798;DHT22;4435;50.898;4.734;2022-07-23T13:58:00;23.40;99.90
8798;DHT22;4435;50.898;4.734;2022-07-23T14:00:26;23.40;99.90
8798;DHT22;4435;50.898;4.734;2022-07-23T14:02:52;23.40;99.90
8798;DHT22;4435;50.898;4.734;2022-07-23T14:05:18;23.30;99.90
8798;DHT22;4435;50.898;4.734;2022-07-23T14:07:44;23.30;99.90
8798;DHT22;4435;50.898;4.734;2022-07-23T14:10:12;23.20;99.90
8798;DHT22;4435;50.898;4.734;2022-07-23T14:12:38;23.20;99.90
8798;DHT22;4435;50.898;4.734;2022-07-23T14:15:06;23.20;99.90
8798;DHT22;4435;50.898;4.734;2022-07-23T14:17:33;23.30;99.90
8798;DHT22;4435;50.898;4.734;2022-07-23T14:19:59;23.30;99.90
8798;DHT22;4435;50.898;4.734;2022-07-23T14:22:25;23.40;99.90
8798;DHT22;4435;50.898;4.734;2022-07-23T14:24:51;23.50;99.90
8798;DHT22;4435;50.898;4.734;2022-07-23T14:27:17;23.50;99.90
8798;DHT22;4435;50.898;4.734;2022-07-23T14:29:43;23.50;99.90
8798;DHT22;4435;50.898;4.734;2022-07-23T14:32:08;23.40;99.90
8798;DHT22;4435;50.898;4.734;2022-07-23T14:34:34;23.40;99.90
8798;DHT22;4435;50.898;4.734;2022-07-23T14:37:00;23.40;99.90
8798;DHT22;4435;50.898;4.734;2022-07-23T14:39:26;23.40;99.90
8798;DHT22;4435;50.898;4.734;2022-07-23T14:41:52;23.40;99.90
8798;DHT22;4435;50.898;4.734;2022-07-23T14:44:17;23.50;99.90
8798;DHT22;4435;50.898;4.734;2022-07-23T14:46:43;23.50;99.90
8798;DHT22;4435;50.898;4.734;2022-07-23T14:49:09;23.50;99.90
8798;DHT22;4435;50.898;4.734;2022-07-23T14:51:35;23.50;99.90
8798;DHT22;4435;50.898;4.734;2022-07-23T14:54:03;23.50;99.90
8798;DHT22;4435;50.898;4.734;2022-07-23T14:56:29;23.50;99.90
8798;DHT22;4435;50.898;4.734;2022-07-23T14:58:54;23.50;99.90
8798;DHT22;4435;50.898;4.734;2022-07-23T15:01:22;23.50;99.90
8798;DHT22;4435;50.898;4.734;2022-07-23T15:03:49;23.50;99.90
8798;DHT22;4435;50.898;4.734;2022-07-23T15:06:16;23.50;99.90
8798;DHT22;4435;50.898;4.734;2022-07-23T15:08:42;23.60;99.90
8798;DHT22;4435;50.898;4.734;2022-07-23T15:11:08;23.60;99.90
8798;DHT22;4435;50.898;4.734;2022-07-23T15:13:35;23.70;99.90
8798;DHT22;4435;50.898;4.734;2022-07-23T15:16:02;23.70;99.90
8798;DHT22;4435;50.898;4.734;2022-07-23T15:18:28;23.70;99.90
8798;DHT22;4435;50.898;4.734;2022-07-23T15:20:54;23.80;99.90
8798;DHT22;4435;50.898;4.734;2022-07-23T15:23:20;23.70;99.90
8798;DHT22;4435;50.898;4.734;2022-07-23T15:25:46;23.70;99.90
8798;DHT22;4435;50.898;4.734;2022-07-23T15:28:12;23.80;99.90
8798;DHT22;4435;50.898;4.734;2022-07-23T15:30:37;23.90;99.90
8798;DHT22;4435;50.898;4.734;2022-07-23T15:33:03;24.00;99.90
8798;DHT22;4435;50.898;4.734;2022-07-23T15:35:31;24.00;99.90
8798;DHT22;4435;50.898;4.734;2022-07-23T15:37:57;24.00;99.90
8798;DHT22;4435;50.898;4.734;2022-07-23T15:40:23;24.00;99.90
8798;DHT22;4435;50.898;4.734;2022-07-23T15:42:48;24.00;99.90
8798;DHT22;4435;50.898;4.734;2022-07-23T15:45:14;24.10;99.90
8798;DHT22;4435;50.898;4.734;2022-07-23T15:47:41;24.10;99.90
8798;DHT22;4435;50.898;4.734;2022-07-23T15:50:08;24.20;99.90
8798;DHT22;4435;50.898;4.734;2022-07-23T15:52:35;24.30;99.90
8798;DHT22;4435;50.898;4.734;2022-07-23T15:55:01;24.30;99.90
8798;DHT22;4435;50.898;4.734;2022-07-23T15:57:27;24.30;99.90
8798;DHT22;4435;50.898;4.734;2022-07-23T15:59:53;24.40;99.90
8798;DHT22;4435;50.898;4.734;2022-07-23T16:02:22;24.40;99.90
8798;DHT22;4435;50.898;4.734;2022-07-23T16:04:48;24.40;99.90
8798;DHT22;4435;50.898;4.734;2022-07-23T16:07:16;24.50;99.90
8798;DHT22;4435;50.898;4.734;2022-07-23T16:09:43;24.50;99.90
8798;DHT22;4435;50.898;4.734;2022-07-23T16:12:09;24.60;99.90
8798;DHT22;4435;50.898;4.734;2022-07-23T16:14:35;24.60;99.90
8798;DHT22;4435;50.898;4.734;2022-07-23T16:17:01;24.50;99.90
8798;DHT22;4435;50.898;4.734;2022-07-23T16:19:26;24.50;99.90
8798;DHT22;4435;50.898;4.734;2022-07-23T16:21:52;24.50;99.90
8798;DHT22;4435;50.898;4.734;2022-07-23T16:24:18;24.50;99.90
8798;DHT22;4435;50.898;4.734;2022-07-23T16:26:44;24.60;99.90
8798;DHT22;4435;50.898;4.734;2022-07-23T16:29:09;24.60;99.90
8798;DHT22;4435;50.898;4.734;2022-07-23T16:31:35;24.60;99.90
8798;DHT22;4435;50.898;4.734;2022-07-23T16:34:01;24.70;99.90
8798;DHT22;4435;50.898;4.734;2022-07-23T16:36:27;24.70;99.90
8798;DHT22;4435;50.898;4.734;2022-07-23T16:38:53;24.70;99.90
8798;DHT22;4435;50.898;4.734;2022-07-23T16:41:18;24.70;99.90
8798;DHT22;4435;50.898;4.734;2022-07-23T16:43:44;24.70;99.90
8798;DHT22;4435;50.898;4.734;2022-07-23T16:46:11;24.70;99.90
8798;DHT22;4435;50.898;4.734;2022-07-23T16:48:37;24.80;99.90
8798;DHT22;4435;50.898;4.734;2022-07-23T16:51:03;24.80;99.90
8798;DHT22;4435;50.898;4.734;2022-07-23T16:53:29;24.80;99.90
8798;DHT22;4435;50.898;4.734;2022-07-23T16:55:55;24.90;99.90